Accueil
METAR-TAF:

METAR-TAF

Aéroports :

Aérodrome de Samedan-Engadin

Saint-Moritz, Suisse

latitude: 46-32-03N, longitude: 9-53-03E, altitude: 1707 m

Observation

Le bulletin a été fait il y a 38 minutes, à 03:20 UTC
Vent 2 kt de sud/sud-ouest
Température -2°C
Humidité 93%
Pression 1031 hPa
Visibilité 10 km ou plus
pas de nuages en-dessous de 1500 mètres et pas de cumulonimbus.

METAR: LSZS 260320Z AUTO 20002KT CAVOK M02/M03 Q1031

Heure: 05:58 (03:58 UTC)

Prévision

Le bulletin a été fait il y a 13 heures et 33 minutes, à 14:25 UTC
Prévision valable du 25 à 15 UTC au 25 à 24 UTC
Vent 9 kt de nord/nord-ouest
Visibilité 10 km ou plus
Quelques nuages à une hauteur de 6000 ft
Probabilité 40% :
Temporairement
du 25 à 15 UTC au 25 à 21 UTC
Vent 15 kt de nord-est avec des rafales jusqu'à 25 kt

TAF: LSZS 251425Z 2515/2524 33009KT 9999 FEW060 TX14/2515Z PROB40 TEMPO 2515/2521 04015G25KT

Observations et prévisions météorologiques de plus de 4000 aéroports (messages METAR et TAF).

Les stations disponibles sont représentées par des disques jaunes et rouges sur la carte.

Passer la souris dessus pour voir le nom de la station.

Cliquer dessus pour voir les observations et prévisions météorologiques.

Pour changer de carte: cliquez sur les boutons verts avec une croix noire pour zoomer, sur le bouton vert avec un tiret pour effectuer un zoom arrière, ou sur les flèches vertes pour les cartes adjacentes.


METAR-TAF: